Aeroporto :
LOGIN :

Iscrizione | Disclaimer

   EN    FR    IT 

 










Sommario :    VFR   VFR Marginale   IFR   IFR Intensivo   IFR Molto Intensivo
Visibilità : 
Base nubi : 
>= 8 km
>= 3000ft
5 / 8 km
1000 / 3000 ft
1500m / 5 km
500 / 1000 ft
800 / 1500m
200 / 500 ft
< 800m
< 200 ft
Simboli :   Temporali  Nebbia  Neve Forte  Precipitazioni Forti  Vento > 20 kt
SIGMETs :   Varie  Temporali  Ghiacco  Turbolenza  Onda orograficha  Ceneri Vulcaniche






- Altitudine del aeroporto : 290 ft
- Codice IATA : ACI


EGJA - Alderney

ULTIMO METAR :
  • 251620Z 24018KT 9999 VCSH FEW013 SCT025CB 12/07 Q0997

METARs OBSOLETI :
  • 251550Z 22016KT 9999 VCSH FEW013 SCT025CB 12/07 Q0997
  • 251520Z 23017KT 9999 VCSH FEW013 SCT025CB 12/07 Q0997
  • 251450Z 24017KT 9999 VCSH FEW013 SCT025CB 13/08 Q0997
  • 251420Z 23018KT 9999 VCSH FEW013 FEW020CB 12/07 Q0997
  • 251350Z 23018KT 9999 VCSH FEW013 FEW020CB 13/08 Q0997

TAF TAF EGJA
Valido dal 25 a 15 ore il 26 a 00 ore UTC


251356Z 2515/2600 24020KT 9999 FEW015CB
TEMPO 2515/2600 24022G32KT 6000 SHRA BKN015CB
PROB30
TEMPO 2515/2600 3000 +TSRAGS BKN010CB



MetMap, La meteo Aeronautica in un colpo d'occhio ! - Copyright ORBIFLY Dicembre 2007 - Disclaimer

ORBIFLY MET'MAP TEAM :

Programmazione e sviluppo : Alexandra Zaïnal
Concezione : Baudouin d'Aumeries
Aiuto per la programmazione : Marc-Olivier Méhu
Supporto tecnico e logistico : Manuel Goepfert
Aiuto per la traduzione : Arnaldo La Scala

Contatto : metmap@orbifly.com




FONTI E CREDITI :

   NOAA